WZZ2755 LBSF-LIRF
Flight info
| Callsign | WZZ2755 |
|---|---|
| Flight time | 1h 36m |
| Altitude | 36000 |
| Route | NAPET T214 SIN DCT DOBAR DCT DIRES DCT TROTA DCT TOPNO DCT DOGUS DCT EKTOL DCT AMSOR DCT IPKAM DCT TEA DCT SIPRO Z803 LAT |
| Aircraft | A321/M-SDE3FGHIRWY/LB1 |
Departure
| Time | 2026-05-06 16:27 |
|---|---|
| Airport | Sofia Airport (LBSF) |
Arrival
| Time | 2026-05-06 18:03 |
|---|---|
| Airport | Rome–Fiumicino Leonardo da Vinci International Airport (LIRF) |
| Time | Latitude | Longitude | Altitude | Speed | Heading |
|---|---|---|---|---|---|
| 2026-05-06 16:13 | 42.69036 | 23.40520 | 1749 ft | 0 kts | 197° |
| 2026-05-06 16:22 | 42.69032 | 23.40519 | 1740 ft | 2 kts | 197° |
| 2026-05-06 16:22 | 42.68997 | 23.40497 | 1739 ft | 8 kts | 225° |
| 2026-05-06 16:23 | 42.69002 | 23.40419 | 1749 ft | 10 kts | 287° |
| 2026-05-06 16:23 | 42.69023 | 23.40326 | 1741 ft | 11 kts | 287° |
| 2026-05-06 16:23 | 42.69047 | 23.40219 | 1742 ft | 12 kts | 287° |
| 2026-05-06 16:23 | 42.69073 | 23.40101 | 1749 ft | 14 kts | 287° |
| 2026-05-06 16:24 | 42.69097 | 23.39966 | 1748 ft | 15 kts | 278° |
| 2026-05-06 16:24 | 42.69123 | 23.39820 | 1742 ft | 16 kts | 286° |
| 2026-05-06 16:24 | 42.69157 | 23.39665 | 1740 ft | 18 kts | 287° |
| 2026-05-06 16:24 | 42.69201 | 23.39546 | 1745 ft | 13 kts | 335° |
| 2026-05-06 16:25 | 42.69297 | 23.39550 | 1748 ft | 15 kts | 5° |
| 2026-05-06 16:25 | 42.69400 | 23.39563 | 1748 ft | 16 kts | 5° |
| 2026-05-06 16:25 | 42.69515 | 23.39576 | 1740 ft | 17 kts | 4° |
| 2026-05-06 16:25 | 42.69637 | 23.39589 | 1748 ft | 18 kts | 4° |
| 2026-05-06 16:26 | 42.69726 | 23.39599 | 1742 ft | 6 kts | 5° |
| 2026-05-06 16:26 | 42.69765 | 23.39623 | 1742 ft | 7 kts | 52° |
| 2026-05-06 16:26 | 42.69767 | 23.39734 | 1742 ft | 23 kts | 94° |
| 2026-05-06 16:26 | 42.69734 | 23.40296 | 1742 ft | 96 kts | 95° |
| 2026-05-06 16:27 | 42.69662 | 23.41484 | 1752 ft | 154 kts | 94° |
| 2026-05-06 16:27 | 42.69560 | 23.43118 | 1989 ft | 181 kts | 96° |
| 2026-05-06 16:27 | 42.69457 | 23.44819 | 2696 ft | 185 kts | 95° |
| 2026-05-06 16:27 | 42.69350 | 23.46567 | 3415 ft | 187 kts | 94° |
| 2026-05-06 16:28 | 42.69228 | 23.48397 | 3678 ft | 207 kts | 96° |
| 2026-05-06 16:28 | 42.69102 | 23.50197 | 3842 ft | 226 kts | 97° |
| 2026-05-06 16:28 | 42.68948 | 23.52429 | 3977 ft | 249 kts | 98° |
| 2026-05-06 16:29 | 42.68690 | 23.54842 | 4356 ft | 267 kts | 112° |
| 2026-05-06 16:29 | 42.68103 | 23.56391 | 4786 ft | 269 kts | 130° |
| 2026-05-06 16:29 | 42.67680 | 23.57043 | 5064 ft | 270 kts | 137° |
| 2026-05-06 16:29 | 42.66970 | 23.57790 | 5469 ft | 270 kts | 150° |
| 2026-05-06 16:30 | 42.65190 | 23.58559 | 6252 ft | 273 kts | 178° |
| 2026-05-06 16:30 | 42.63940 | 23.58386 | 6721 ft | 275 kts | 197° |
| 2026-05-06 16:30 | 42.61851 | 23.56460 | 7749 ft | 276 kts | 232° |
| 2026-05-06 16:30 | 42.60655 | 23.54420 | 8590 ft | 277 kts | 233° |
| 2026-05-06 16:31 | 42.59456 | 23.52355 | 9400 ft | 280 kts | 233° |
| 2026-05-06 16:31 | 42.58260 | 23.50294 | 10181 ft | 284 kts | 233° |
| 2026-05-06 16:31 | 42.56994 | 23.48118 | 10471 ft | 306 kts | 233° |
| 2026-05-06 16:31 | 42.55623 | 23.45771 | 10664 ft | 329 kts | 233° |
| 2026-05-06 16:32 | 42.54166 | 23.43284 | 11062 ft | 342 kts | 233° |
| 2026-05-06 16:32 | 42.52666 | 23.40732 | 11659 ft | 350 kts | 232° |
| 2026-05-06 16:32 | 42.51137 | 23.38140 | 12320 ft | 355 kts | 232° |
| 2026-05-06 16:32 | 42.49587 | 23.35516 | 13011 ft | 359 kts | 232° |
| 2026-05-06 16:33 | 42.48022 | 23.32865 | 13718 ft | 362 kts | 233° |
| 2026-05-06 16:33 | 42.46440 | 23.30187 | 14386 ft | 365 kts | 233° |
| 2026-05-06 16:33 | 42.44867 | 23.27527 | 15014 ft | 368 kts | 232° |
| 2026-05-06 16:34 | 42.41626 | 23.22065 | 16316 ft | 375 kts | 233° |
| 2026-05-06 16:34 | 42.39986 | 23.19303 | 16995 ft | 378 kts | 233° |
| 2026-05-06 16:34 | 42.38328 | 23.16513 | 17650 ft | 382 kts | 233° |
| 2026-05-06 16:34 | 42.36655 | 23.13694 | 18301 ft | 386 kts | 234° |
| 2026-05-06 16:35 | 42.34968 | 23.10852 | 18872 ft | 389 kts | 234° |
| 2026-05-06 16:35 | 42.33268 | 23.07992 | 19431 ft | 392 kts | 234° |
| 2026-05-06 16:35 | 42.31576 | 23.05152 | 20013 ft | 395 kts | 234° |
| 2026-05-06 16:35 | 42.29846 | 23.02247 | 20599 ft | 398 kts | 234° |
| 2026-05-06 16:36 | 42.28201 | 22.99240 | 21149 ft | 399 kts | 240° |
| 2026-05-06 16:36 | 42.26692 | 22.96073 | 21678 ft | 402 kts | 240° |
| 2026-05-06 16:36 | 42.25175 | 22.92887 | 22231 ft | 404 kts | 241° |
| 2026-05-06 16:36 | 42.23651 | 22.89688 | 22800 ft | 407 kts | 241° |
| 2026-05-06 16:37 | 42.22115 | 22.86471 | 23328 ft | 410 kts | 241° |
| 2026-05-06 16:37 | 42.20567 | 22.83230 | 23801 ft | 412 kts | 241° |
| 2026-05-06 16:37 | 42.19032 | 22.80019 | 24226 ft | 414 kts | 241° |
| 2026-05-06 16:37 | 42.17469 | 22.76750 | 24685 ft | 415 kts | 241° |
| 2026-05-06 16:38 | 42.15902 | 22.73481 | 25173 ft | 416 kts | 241° |
| 2026-05-06 16:38 | 42.14323 | 22.70194 | 25637 ft | 418 kts | 241° |
| 2026-05-06 16:38 | 42.12737 | 22.66896 | 26040 ft | 421 kts | 241° |
| 2026-05-06 16:38 | 42.11139 | 22.63577 | 26447 ft | 423 kts | 241° |
| 2026-05-06 16:39 | 42.09534 | 22.60247 | 26878 ft | 425 kts | 241° |
| 2026-05-06 16:39 | 42.07919 | 22.56900 | 27284 ft | 428 kts | 241° |
| 2026-05-06 16:39 | 42.06293 | 22.53528 | 27664 ft | 430 kts | 241° |
| 2026-05-06 16:39 | 42.04663 | 22.50144 | 28048 ft | 432 kts | 241° |
| 2026-05-06 16:40 | 42.03039 | 22.46782 | 28422 ft | 435 kts | 241° |
| 2026-05-06 16:40 | 42.01387 | 22.43372 | 28816 ft | 437 kts | 240° |
| 2026-05-06 16:40 | 41.99725 | 22.39946 | 29260 ft | 439 kts | 240° |
| 2026-05-06 16:40 | 41.98108 | 22.36464 | 29631 ft | 439 kts | 245° |
| 2026-05-06 16:41 | 41.96815 | 22.32765 | 30061 ft | 437 kts | 249° |
| 2026-05-06 16:41 | 41.95579 | 22.29046 | 30519 ft | 435 kts | 249° |
| 2026-05-06 16:41 | 41.94335 | 22.25344 | 30948 ft | 435 kts | 249° |
| 2026-05-06 16:41 | 41.93087 | 22.21652 | 31389 ft | 434 kts | 249° |
| 2026-05-06 16:42 | 41.91857 | 22.18017 | 31809 ft | 433 kts | 249° |
| 2026-05-06 16:42 | 41.90612 | 22.14337 | 32233 ft | 432 kts | 249° |
| 2026-05-06 16:42 | 41.89371 | 22.10667 | 32664 ft | 431 kts | 248° |
| 2026-05-06 16:42 | 41.88133 | 22.07018 | 33133 ft | 429 kts | 248° |
| 2026-05-06 16:43 | 41.86898 | 22.03377 | 33569 ft | 428 kts | 248° |
| 2026-05-06 16:43 | 41.85666 | 21.99748 | 33989 ft | 427 kts | 248° |
| 2026-05-06 16:43 | 41.84436 | 21.96126 | 34337 ft | 426 kts | 248° |
| 2026-05-06 16:43 | 41.83208 | 21.92509 | 34679 ft | 426 kts | 248° |
| 2026-05-06 16:44 | 41.81982 | 21.88905 | 35021 ft | 425 kts | 248° |
| 2026-05-06 16:44 | 41.80771 | 21.85347 | 35347 ft | 424 kts | 248° |
| 2026-05-06 16:44 | 41.79548 | 21.81756 | 35687 ft | 424 kts | 248° |
| 2026-05-06 16:44 | 41.78323 | 21.78163 | 35931 ft | 424 kts | 248° |
| 2026-05-06 16:45 | 41.77100 | 21.74583 | 35977 ft | 422 kts | 248° |
| 2026-05-06 16:45 | 41.74660 | 21.67451 | 35976 ft | 421 kts | 248° |
| 2026-05-06 16:46 | 41.72213 | 21.60339 | 35983 ft | 421 kts | 248° |
| 2026-05-06 16:46 | 41.69768 | 21.53271 | 35990 ft | 422 kts | 248° |
| 2026-05-06 16:47 | 41.67308 | 21.46158 | 36001 ft | 421 kts | 248° |
| 2026-05-06 16:47 | 41.64851 | 21.39053 | 35997 ft | 420 kts | 248° |
| 2026-05-06 16:48 | 41.62393 | 21.31951 | 36016 ft | 421 kts | 248° |
| 2026-05-06 16:48 | 41.59923 | 21.24847 | 36020 ft | 422 kts | 248° |
| 2026-05-06 16:49 | 41.57453 | 21.17798 | 36032 ft | 422 kts | 247° |
| 2026-05-06 16:49 | 41.54963 | 21.10708 | 36048 ft | 421 kts | 247° |
| 2026-05-06 16:50 | 41.52484 | 21.03630 | 36058 ft | 420 kts | 247° |
| 2026-05-06 16:50 | 41.50010 | 20.96575 | 36069 ft | 420 kts | 247° |
| 2026-05-06 16:51 | 41.47541 | 20.89580 | 36063 ft | 420 kts | 247° |
| 2026-05-06 16:51 | 41.45049 | 20.82544 | 36077 ft | 420 kts | 247° |
| 2026-05-06 16:52 | 41.42560 | 20.75514 | 36087 ft | 419 kts | 247° |
| 2026-05-06 16:52 | 41.40074 | 20.68504 | 36093 ft | 418 kts | 246° |
| 2026-05-06 16:53 | 41.37597 | 20.61556 | 36078 ft | 418 kts | 246° |
| 2026-05-06 16:53 | 41.35098 | 20.54578 | 36071 ft | 418 kts | 246° |
| 2026-05-06 16:54 | 41.32856 | 20.47472 | 36072 ft | 415 kts | 256° |
| 2026-05-06 16:54 | 41.31353 | 20.40066 | 36087 ft | 414 kts | 256° |
| 2026-05-06 16:55 | 41.29840 | 20.32730 | 36090 ft | 414 kts | 256° |
| 2026-05-06 16:55 | 41.28312 | 20.25364 | 36087 ft | 413 kts | 256° |
| 2026-05-06 16:56 | 41.26786 | 20.18004 | 36087 ft | 412 kts | 256° |
| 2026-05-06 16:56 | 41.25664 | 20.12595 | 36085 ft | 412 kts | 256° |
| 2026-05-06 16:57 | 41.24211 | 20.05640 | 36097 ft | 411 kts | 256° |
| 2026-05-06 16:57 | 41.22679 | 19.98324 | 36084 ft | 411 kts | 256° |
| 2026-05-06 16:58 | 41.21143 | 19.91013 | 36087 ft | 411 kts | 256° |
| 2026-05-06 16:58 | 41.19602 | 19.83708 | 36090 ft | 411 kts | 256° |
| 2026-05-06 16:59 | 41.18068 | 19.76455 | 36096 ft | 410 kts | 256° |
| 2026-05-06 16:59 | 41.16525 | 19.69164 | 36100 ft | 410 kts | 256° |
| 2026-05-06 17:00 | 41.14974 | 19.61887 | 36091 ft | 409 kts | 256° |
| 2026-05-06 17:00 | 41.13417 | 19.54629 | 36093 ft | 409 kts | 256° |
| 2026-05-06 17:01 | 41.11872 | 19.47420 | 36092 ft | 409 kts | 256° |
| 2026-05-06 17:01 | 41.10310 | 19.40173 | 36093 ft | 409 kts | 255° |
| 2026-05-06 17:02 | 41.08746 | 19.32937 | 36092 ft | 408 kts | 255° |
| 2026-05-06 17:02 | 41.07183 | 19.25714 | 36090 ft | 408 kts | 255° |
| 2026-05-06 17:03 | 41.05876 | 19.18431 | 36083 ft | 406 kts | 265° |
| 2026-05-06 17:03 | 41.05836 | 19.11009 | 36085 ft | 405 kts | 270° |
| 2026-05-06 17:04 | 41.05872 | 19.03539 | 36083 ft | 405 kts | 270° |
| 2026-05-06 17:04 | 41.05893 | 18.96071 | 36075 ft | 405 kts | 270° |
| 2026-05-06 17:05 | 41.05915 | 18.88606 | 36076 ft | 405 kts | 270° |
| 2026-05-06 17:05 | 41.05932 | 18.81192 | 36074 ft | 405 kts | 270° |
| 2026-05-06 17:06 | 41.05947 | 18.73724 | 36071 ft | 405 kts | 269° |
| 2026-05-06 17:06 | 41.05962 | 18.66258 | 36068 ft | 405 kts | 269° |
| 2026-05-06 17:07 | 41.05963 | 18.58787 | 36070 ft | 405 kts | 269° |
| 2026-05-06 17:07 | 41.05958 | 18.51366 | 36063 ft | 405 kts | 269° |
| 2026-05-06 17:08 | 41.05952 | 18.43898 | 36060 ft | 405 kts | 269° |
| 2026-05-06 17:08 | 41.05943 | 18.36444 | 36063 ft | 404 kts | 270° |
| 2026-05-06 17:09 | 41.05933 | 18.29016 | 36063 ft | 402 kts | 270° |
| 2026-05-06 17:09 | 41.05918 | 18.21669 | 36064 ft | 401 kts | 270° |
| 2026-05-06 17:10 | 41.05895 | 18.14287 | 36055 ft | 400 kts | 270° |
| 2026-05-06 17:10 | 41.05866 | 18.06910 | 36054 ft | 400 kts | 270° |
| 2026-05-06 17:11 | 41.05635 | 17.99547 | 36048 ft | 400 kts | 267° |
| 2026-05-06 17:11 | 41.05236 | 17.92255 | 36047 ft | 400 kts | 266° |
| 2026-05-06 17:12 | 41.04834 | 17.84913 | 36033 ft | 400 kts | 267° |
| 2026-05-06 17:12 | 41.04474 | 17.77569 | 36035 ft | 399 kts | 267° |
| 2026-05-06 17:13 | 41.04127 | 17.70230 | 36044 ft | 399 kts | 266° |
| 2026-05-06 17:13 | 41.03768 | 17.62954 | 36035 ft | 398 kts | 266° |
| 2026-05-06 17:14 | 41.03401 | 17.55635 | 36022 ft | 398 kts | 266° |
| 2026-05-06 17:14 | 41.03028 | 17.48325 | 36023 ft | 398 kts | 266° |
| 2026-05-06 17:15 | 41.02651 | 17.41016 | 36023 ft | 398 kts | 266° |
| 2026-05-06 17:15 | 41.02274 | 17.33710 | 36039 ft | 397 kts | 266° |
| 2026-05-06 17:16 | 41.01895 | 17.26477 | 36032 ft | 396 kts | 266° |
| 2026-05-06 17:16 | 41.01507 | 17.19209 | 36031 ft | 395 kts | 266° |
| 2026-05-06 17:17 | 41.01114 | 17.11950 | 36026 ft | 395 kts | 266° |
| 2026-05-06 17:17 | 41.00721 | 17.04698 | 36027 ft | 395 kts | 266° |
| 2026-05-06 17:18 | 41.00320 | 16.97509 | 36033 ft | 394 kts | 266° |
| 2026-05-06 17:18 | 40.99918 | 16.90283 | 36021 ft | 393 kts | 266° |
| 2026-05-06 17:19 | 40.99507 | 16.83065 | 36025 ft | 393 kts | 265° |
| 2026-05-06 17:19 | 40.99094 | 16.75910 | 36021 ft | 392 kts | 265° |
| 2026-05-06 17:20 | 40.98686 | 16.68714 | 36010 ft | 392 kts | 265° |
| 2026-05-06 17:20 | 40.98268 | 16.61516 | 35973 ft | 392 kts | 265° |
| 2026-05-06 17:21 | 40.97841 | 16.54314 | 35970 ft | 393 kts | 265° |
| 2026-05-06 17:21 | 40.97412 | 16.47149 | 35976 ft | 394 kts | 265° |
| 2026-05-06 17:22 | 40.96981 | 16.39929 | 35979 ft | 394 kts | 265° |
| 2026-05-06 17:22 | 40.96536 | 16.32709 | 35994 ft | 394 kts | 265° |
| 2026-05-06 17:23 | 40.96085 | 16.25479 | 35990 ft | 394 kts | 265° |
| 2026-05-06 17:23 | 40.95631 | 16.18249 | 35999 ft | 395 kts | 265° |
| 2026-05-06 17:24 | 40.95340 | 16.11050 | 35999 ft | 395 kts | 273° |
| 2026-05-06 17:24 | 40.96350 | 16.03884 | 36001 ft | 397 kts | 281° |
| 2026-05-06 17:25 | 40.97561 | 15.96744 | 35997 ft | 398 kts | 280° |
| 2026-05-06 17:25 | 40.98762 | 15.89575 | 35978 ft | 400 kts | 280° |
| 2026-05-06 17:26 | 40.99970 | 15.82435 | 35983 ft | 401 kts | 280° |
| 2026-05-06 17:26 | 41.01181 | 15.75225 | 35982 ft | 401 kts | 280° |
| 2026-05-06 17:27 | 41.02381 | 15.68011 | 35988 ft | 401 kts | 280° |
| 2026-05-06 17:27 | 41.03595 | 15.60794 | 36011 ft | 401 kts | 279° |
| 2026-05-06 17:28 | 41.04792 | 15.53623 | 36003 ft | 401 kts | 279° |
| 2026-05-06 17:28 | 41.05993 | 15.46405 | 36004 ft | 401 kts | 279° |
| 2026-05-06 17:29 | 41.07187 | 15.39186 | 36005 ft | 401 kts | 279° |
| 2026-05-06 17:29 | 41.08370 | 15.31967 | 36011 ft | 401 kts | 279° |
| 2026-05-06 17:30 | 41.09539 | 15.24790 | 36026 ft | 401 kts | 278° |
| 2026-05-06 17:30 | 41.10709 | 15.17573 | 36024 ft | 401 kts | 279° |
| 2026-05-06 17:31 | 41.11894 | 15.10351 | 36021 ft | 401 kts | 279° |
| 2026-05-06 17:31 | 41.13085 | 15.03136 | 36024 ft | 400 kts | 279° |
| 2026-05-06 17:32 | 41.14266 | 14.95921 | 36026 ft | 400 kts | 279° |
| 2026-05-06 17:32 | 41.15431 | 14.88744 | 36046 ft | 401 kts | 278° |
| 2026-05-06 17:33 | 41.16586 | 14.81519 | 36038 ft | 400 kts | 278° |
| 2026-05-06 17:33 | 41.17707 | 14.74288 | 36033 ft | 400 kts | 278° |
| 2026-05-06 17:34 | 41.18820 | 14.67051 | 36028 ft | 400 kts | 278° |
| 2026-05-06 17:34 | 41.19934 | 14.59866 | 36027 ft | 400 kts | 278° |
| 2026-05-06 17:35 | 41.21081 | 14.52636 | 36032 ft | 400 kts | 278° |
| 2026-05-06 17:35 | 41.22228 | 14.45397 | 36042 ft | 400 kts | 278° |
| 2026-05-06 17:36 | 41.23911 | 14.34599 | 36041 ft | 400 kts | 278° |
| 2026-05-06 17:36 | 41.25029 | 14.27373 | 35970 ft | 400 kts | 278° |
| 2026-05-06 17:37 | 41.25590 | 14.23756 | 35712 ft | 399 kts | 278° |
| 2026-05-06 17:37 | 41.26149 | 14.20142 | 35199 ft | 401 kts | 277° |
| 2026-05-06 17:37 | 41.26711 | 14.16499 | 34507 ft | 404 kts | 277° |
| 2026-05-06 17:37 | 41.27277 | 14.12823 | 33731 ft | 408 kts | 277° |
| 2026-05-06 17:38 | 41.27844 | 14.09119 | 32955 ft | 411 kts | 277° |
| 2026-05-06 17:38 | 41.28405 | 14.05437 | 32173 ft | 414 kts | 277° |
| 2026-05-06 17:38 | 41.28978 | 14.01672 | 31347 ft | 418 kts | 277° |
| 2026-05-06 17:38 | 41.29802 | 13.97929 | 30530 ft | 427 kts | 286° |
| 2026-05-06 17:39 | 41.31119 | 13.94371 | 29982 ft | 430 kts | 295° |
| 2026-05-06 17:39 | 41.32787 | 13.91061 | 29347 ft | 430 kts | 298° |
| 2026-05-06 17:39 | 41.34474 | 13.87807 | 28753 ft | 426 kts | 298° |
| 2026-05-06 17:39 | 41.36145 | 13.84572 | 28207 ft | 422 kts | 298° |
| 2026-05-06 17:40 | 41.37777 | 13.81402 | 27592 ft | 419 kts | 298° |
| 2026-05-06 17:40 | 41.39416 | 13.78209 | 27016 ft | 416 kts | 298° |
| 2026-05-06 17:40 | 41.41036 | 13.75041 | 26442 ft | 413 kts | 298° |
| 2026-05-06 17:40 | 41.42646 | 13.71888 | 25880 ft | 410 kts | 298° |
| 2026-05-06 17:41 | 41.44005 | 13.68609 | 25338 ft | 400 kts | 288° |
| 2026-05-06 17:41 | 41.44913 | 13.65147 | 24817 ft | 391 kts | 279° |
| 2026-05-06 17:41 | 41.45422 | 13.61633 | 24315 ft | 385 kts | 275° |
| 2026-05-06 17:41 | 41.45864 | 13.58117 | 23826 ft | 383 kts | 275° |
| 2026-05-06 17:42 | 41.46512 | 13.54694 | 23586 ft | 379 kts | 288° |
| 2026-05-06 17:42 | 41.47798 | 13.51717 | 23503 ft | 375 kts | 301° |
| 2026-05-06 17:42 | 41.49343 | 13.48965 | 23442 ft | 371 kts | 301° |
| 2026-05-06 17:42 | 41.50898 | 13.46207 | 23356 ft | 373 kts | 301° |
| 2026-05-06 17:43 | 41.52461 | 13.43438 | 23266 ft | 374 kts | 301° |
| 2026-05-06 17:43 | 41.54029 | 13.40673 | 23178 ft | 373 kts | 301° |
| 2026-05-06 17:43 | 41.55593 | 13.37916 | 23092 ft | 373 kts | 301° |
| 2026-05-06 17:43 | 41.57157 | 13.35151 | 23004 ft | 372 kts | 301° |
| 2026-05-06 17:44 | 41.58714 | 13.32391 | 22911 ft | 372 kts | 301° |
| 2026-05-06 17:44 | 41.60264 | 13.29632 | 22831 ft | 371 kts | 301° |
| 2026-05-06 17:44 | 41.61813 | 13.26873 | 22740 ft | 371 kts | 301° |
| 2026-05-06 17:44 | 41.63345 | 13.24151 | 22671 ft | 371 kts | 301° |
| 2026-05-06 17:45 | 41.64893 | 13.21405 | 22577 ft | 370 kts | 301° |
| 2026-05-06 17:45 | 41.66439 | 13.18657 | 22483 ft | 369 kts | 301° |
| 2026-05-06 17:45 | 41.67981 | 13.15908 | 22395 ft | 371 kts | 301° |
| 2026-05-06 17:45 | 41.69569 | 13.13062 | 21921 ft | 388 kts | 301° |
| 2026-05-06 17:46 | 41.71186 | 13.10168 | 21375 ft | 388 kts | 301° |
| 2026-05-06 17:46 | 41.72257 | 13.08254 | 21052 ft | 387 kts | 301° |
| 2026-05-06 17:46 | 41.73874 | 13.05370 | 20552 ft | 386 kts | 301° |
| 2026-05-06 17:46 | 41.75478 | 13.02509 | 20055 ft | 384 kts | 301° |
| 2026-05-06 17:47 | 41.77077 | 12.99657 | 19577 ft | 382 kts | 301° |
| 2026-05-06 17:47 | 41.79177 | 12.95900 | 18953 ft | 380 kts | 301° |
| 2026-05-06 17:47 | 41.80752 | 12.93071 | 18490 ft | 378 kts | 301° |
| 2026-05-06 17:47 | 41.82318 | 12.90253 | 17980 ft | 376 kts | 301° |
| 2026-05-06 17:48 | 41.83352 | 12.88393 | 17635 ft | 375 kts | 301° |
| 2026-05-06 17:48 | 41.84901 | 12.85600 | 17114 ft | 372 kts | 302° |
| 2026-05-06 17:48 | 41.86441 | 12.82821 | 16588 ft | 370 kts | 302° |
| 2026-05-06 17:48 | 41.87972 | 12.80062 | 16086 ft | 367 kts | 303° |
| 2026-05-06 17:49 | 41.89986 | 12.76439 | 15432 ft | 364 kts | 303° |
| 2026-05-06 17:49 | 41.91494 | 12.73724 | 14949 ft | 361 kts | 303° |
| 2026-05-06 17:49 | 41.92988 | 12.71025 | 14467 ft | 359 kts | 303° |
| 2026-05-06 17:49 | 41.93971 | 12.69247 | 14139 ft | 357 kts | 303° |
| 2026-05-06 17:50 | 41.95445 | 12.66578 | 13672 ft | 354 kts | 303° |
| 2026-05-06 17:50 | 41.96906 | 12.63931 | 13133 ft | 352 kts | 303° |
| 2026-05-06 17:50 | 41.98356 | 12.61302 | 12615 ft | 349 kts | 303° |
| 2026-05-06 17:50 | 41.99788 | 12.58699 | 12110 ft | 346 kts | 303° |
| 2026-05-06 17:51 | 42.01220 | 12.56097 | 11597 ft | 344 kts | 303° |
| 2026-05-06 17:51 | 42.02637 | 12.53521 | 11100 ft | 341 kts | 303° |
| 2026-05-06 17:51 | 42.04040 | 12.50961 | 10618 ft | 339 kts | 303° |
| 2026-05-06 17:51 | 42.05414 | 12.48454 | 10141 ft | 323 kts | 303° |
| 2026-05-06 17:52 | 42.06681 | 12.46153 | 9919 ft | 297 kts | 303° |
| 2026-05-06 17:52 | 42.07853 | 12.44021 | 9790 ft | 272 kts | 303° |
| 2026-05-06 17:52 | 42.08967 | 12.41984 | 9606 ft | 270 kts | 303° |
| 2026-05-06 17:52 | 42.10081 | 12.39939 | 9194 ft | 272 kts | 302° |
| 2026-05-06 17:53 | 42.11309 | 12.38040 | 9026 ft | 268 kts | 315° |
| 2026-05-06 17:53 | 42.12865 | 12.36671 | 8893 ft | 270 kts | 332° |
| 2026-05-06 17:53 | 42.14646 | 12.35833 | 8613 ft | 271 kts | 339° |
| 2026-05-06 17:53 | 42.16461 | 12.35076 | 8195 ft | 274 kts | 339° |
| 2026-05-06 17:54 | 42.18230 | 12.34139 | 7794 ft | 272 kts | 323° |
| 2026-05-06 17:54 | 42.19502 | 12.32378 | 7412 ft | 264 kts | 295° |
| 2026-05-06 17:54 | 42.19987 | 12.30048 | 7018 ft | 258 kts | 266° |
| 2026-05-06 17:54 | 42.19744 | 12.27674 | 6654 ft | 256 kts | 255° |
| 2026-05-06 17:55 | 42.19351 | 12.25333 | 6285 ft | 256 kts | 253° |
| 2026-05-06 17:55 | 42.18659 | 12.23158 | 5904 ft | 253 kts | 230° |
| 2026-05-06 17:55 | 42.17304 | 12.21703 | 5523 ft | 251 kts | 207° |
| 2026-05-06 17:55 | 42.15728 | 12.20667 | 5177 ft | 251 kts | 204° |
| 2026-05-06 17:56 | 42.14158 | 12.19685 | 4926 ft | 247 kts | 204° |
| 2026-05-06 17:56 | 42.12615 | 12.18714 | 4693 ft | 242 kts | 204° |
| 2026-05-06 17:56 | 42.11134 | 12.17778 | 4533 ft | 234 kts | 204° |
| 2026-05-06 17:56 | 42.09689 | 12.16869 | 4385 ft | 224 kts | 201° |
| 2026-05-06 17:57 | 42.08206 | 12.16461 | 4270 ft | 215 kts | 179° |
| 2026-05-06 17:57 | 42.06758 | 12.16824 | 4165 ft | 208 kts | 164° |
| 2026-05-06 17:57 | 42.05423 | 12.17391 | 4031 ft | 197 kts | 163° |
| 2026-05-06 17:57 | 42.04129 | 12.17939 | 3934 ft | 195 kts | 163° |
| 2026-05-06 17:58 | 42.02841 | 12.18482 | 3728 ft | 193 kts | 163° |
| 2026-05-06 17:58 | 42.01563 | 12.19020 | 3505 ft | 192 kts | 163° |
| 2026-05-06 17:58 | 42.00301 | 12.19552 | 3281 ft | 187 kts | 164° |
| 2026-05-06 17:58 | 41.99111 | 12.20053 | 3033 ft | 174 kts | 164° |
| 2026-05-06 17:59 | 41.97993 | 12.20524 | 2796 ft | 163 kts | 164° |
| 2026-05-06 17:59 | 41.96946 | 12.20965 | 2567 ft | 152 kts | 164° |
| 2026-05-06 17:59 | 41.95967 | 12.21376 | 2387 ft | 144 kts | 164° |
| 2026-05-06 17:59 | 41.95027 | 12.21772 | 2229 ft | 139 kts | 164° |
| 2026-05-06 18:00 | 41.94115 | 12.22154 | 2023 ft | 136 kts | 164° |
| 2026-05-06 18:00 | 41.93218 | 12.22531 | 1849 ft | 135 kts | 163° |
| 2026-05-06 18:00 | 41.93139 | 12.22564 | 1830 ft | 135 kts | 163° |
| 2026-05-06 18:00 | 41.92295 | 12.22919 | 1661 ft | 134 kts | 163° |
| 2026-05-06 18:01 | 41.91417 | 12.23287 | 1480 ft | 134 kts | 163° |
| 2026-05-06 18:01 | 41.90527 | 12.23661 | 1292 ft | 134 kts | 163° |
| 2026-05-06 18:01 | 41.89635 | 12.24035 | 1109 ft | 134 kts | 163° |
| 2026-05-06 18:01 | 41.88740 | 12.24411 | 924 ft | 135 kts | 162° |
| 2026-05-06 18:02 | 41.87853 | 12.24790 | 697 ft | 132 kts | 161° |
| 2026-05-06 18:02 | 41.86978 | 12.25155 | 576 ft | 132 kts | 163° |
| 2026-05-06 18:02 | 41.86092 | 12.25519 | 411 ft | 133 kts | 163° |
| 2026-05-06 18:02 | 41.85209 | 12.25893 | 212 ft | 135 kts | 162° |
| 2026-05-06 18:03 | 41.84315 | 12.26266 | 41 ft | 135 kts | 162° |
| 2026-05-06 18:03 | 41.83529 | 12.26598 | 15 ft | 99 kts | 162° |
| 2026-05-06 18:03 | 41.83036 | 12.26804 | 12 ft | 47 kts | 163° |
| 2026-05-06 18:03 | 41.82803 | 12.26869 | 14 ft | 30 kts | 177° |
| 2026-05-06 18:04 | 41.82601 | 12.26839 | 10 ft | 29 kts | 192° |
| 2026-05-06 18:04 | 41.82411 | 12.26784 | 11 ft | 27 kts | 190° |
| 2026-05-06 18:04 | 41.82227 | 12.26819 | 11 ft | 27 kts | 162° |
| 2026-05-06 18:04 | 41.82052 | 12.26893 | 11 ft | 26 kts | 162° |
| 2026-05-06 18:05 | 41.81878 | 12.26965 | 11 ft | 26 kts | 162° |
| 2026-05-06 18:05 | 41.81694 | 12.27043 | 12 ft | 31 kts | 163° |
| 2026-05-06 18:05 | 41.81494 | 12.27126 | 12 ft | 30 kts | 162° |
| 2026-05-06 18:05 | 41.81296 | 12.27209 | 13 ft | 29 kts | 162° |
| 2026-05-06 18:06 | 41.81103 | 12.27290 | 12 ft | 29 kts | 162° |
| 2026-05-06 18:06 | 41.80914 | 12.27350 | 13 ft | 27 kts | 183° |
| 2026-05-06 18:06 | 41.80738 | 12.27311 | 13 ft | 21 kts | 191° |
| 2026-05-06 18:06 | 41.80643 | 12.27177 | 14 ft | 21 kts | 249° |
| 2026-05-06 18:07 | 41.80592 | 12.26993 | 13 ft | 21 kts | 249° |
| 2026-05-06 18:07 | 41.80541 | 12.26808 | 15 ft | 21 kts | 250° |
| 2026-05-06 18:07 | 41.80492 | 12.26629 | 15 ft | 21 kts | 250° |
| 2026-05-06 18:07 | 41.80442 | 12.26448 | 17 ft | 21 kts | 250° |
| 2026-05-06 18:08 | 41.80382 | 12.26230 | 15 ft | 23 kts | 250° |
| 2026-05-06 18:08 | 41.80289 | 12.26080 | 15 ft | 22 kts | 205° |
| 2026-05-06 18:08 | 41.80151 | 12.25995 | 16 ft | 22 kts | 204° |
| 2026-05-06 18:08 | 41.80014 | 12.25911 | 15 ft | 22 kts | 204° |
| 2026-05-06 18:09 | 41.79877 | 12.25824 | 15 ft | 22 kts | 210° |
| 2026-05-06 18:09 | 41.79766 | 12.25745 | 14 ft | 12 kts | 205° |
| 2026-05-06 18:09 | 41.79687 | 12.25696 | 15 ft | 11 kts | 205° |
| 2026-05-06 18:09 | 41.79643 | 12.25666 | 15 ft | 6 kts | 219° |
| 2026-05-06 18:10 | 41.79647 | 12.25616 | 14 ft | 4 kts | 293° |
| 2026-05-06 18:10 | 41.79651 | 12.25603 | 14 ft | 1 kts | 295° |
| 2026-05-06 18:10 | 41.79652 | 12.25599 | 14 ft | 0 kts | 294° |